createdAt,value
2022-12-23T00:01:51.216Z,6.80
2022-12-23T00:04:17.920Z,7.32
2022-12-23T00:06:44.610Z,7.68
2022-12-23T00:11:57.512Z,9.27
2022-12-23T00:14:42.631Z,7.75
2022-12-23T00:17:22.309Z,8.75
2022-12-23T00:19:49.379Z,7.72
2022-12-23T00:24:42.363Z,8.50
2022-12-23T00:27:08.896Z,8.93
2022-12-23T00:29:35.409Z,9.20
2022-12-23T00:34:28.960Z,8.05
2022-12-23T00:36:55.504Z,8.50
2022-12-23T00:39:40.823Z,7.05
2022-12-23T00:42:27.660Z,6.82
2022-12-23T00:45:14.127Z,7.28
2022-12-23T00:47:58.989Z,5.70
2022-12-23T00:50:25.610Z,5.97
2022-12-23T00:52:52.140Z,5.32
2022-12-23T00:55:18.752Z,5.97
2022-12-23T00:57:45.308Z,5.80
2022-12-23T01:00:12.454Z,5.55
2022-12-23T01:02:57.607Z,5.13
2022-12-23T01:05:39.281Z,5.35
2022-12-23T01:08:08.798Z,5.45
2022-12-23T01:10:37.238Z,5.07
2022-12-23T01:13:03.784Z,4.75
2022-12-23T01:17:56.912Z,4.50
2022-12-23T01:20:23.797Z,4.35
2022-12-23T01:22:50.763Z,5.53
2022-12-23T01:25:17.648Z,4.10
2022-12-23T01:27:44.122Z,4.72
2022-12-23T01:32:37.196Z,4.43
2022-12-23T01:37:30.221Z,4.63
2022-12-23T01:42:41.748Z,4.63
2022-12-23T01:45:15.318Z,3.95
2022-12-23T01:47:54.022Z,3.83
2022-12-23T01:50:29.521Z,3.55
2022-12-23T01:53:14.876Z,3.55
2022-12-23T01:56:07.041Z,3.75
2022-12-23T01:58:37.763Z,3.72
2022-12-23T02:01:24.731Z,4.22
2022-12-23T02:03:56.048Z,4.20
2022-12-23T02:06:47.858Z,4.18
2022-12-23T02:09:36.513Z,3.40
2022-12-23T02:12:26.028Z,2.80
2022-12-23T02:15:50.678Z,4.13
2022-12-23T02:18:37.061Z,3.78
2022-12-23T02:21:18.757Z,4.13
2022-12-23T02:23:58.543Z,4.55
2022-12-23T02:26:24.984Z,3.83
2022-12-23T02:32:14.790Z,3.63
2022-12-23T02:35:13.553Z,3.92
2022-12-23T02:37:55.527Z,3.83
2022-12-23T02:40:38.652Z,4.25
2022-12-23T02:43:17.252Z,3.55
2022-12-23T02:45:52.302Z,4.05
2022-12-23T02:48:23.494Z,3.72
2022-12-23T02:50:53.524Z,3.90
2022-12-23T02:53:37.364Z,3.90
2022-12-23T02:56:07.537Z,3.20
2022-12-23T02:58:41.412Z,3.15
2022-12-23T03:01:10.442Z,3.50
2022-12-23T03:03:38.698Z,3.95
2022-12-23T03:06:29.065Z,3.50
2022-12-23T03:08:58.201Z,3.35
2022-12-23T03:11:49.321Z,3.40
2022-12-23T03:14:36.428Z,3.53
2022-12-23T03:17:25.586Z,3.83
2022-12-23T03:20:21.057Z,3.17
2022-12-23T03:22:57.233Z,2.90
2022-12-23T03:25:33.912Z,3.10
2022-12-23T03:28:16.032Z,2.70
2022-12-23T03:30:47.340Z,2.80
2022-12-23T03:33:22.205Z,3.60
2022-12-23T03:35:55.925Z,3.28
2022-12-23T03:38:23.341Z,3.25
2022-12-23T03:40:55.892Z,3.40
2022-12-23T03:43:27.061Z,4.47
2022-12-23T03:46:08.899Z,3.75
2022-12-23T03:48:42.676Z,4.15
2022-12-23T03:51:23.535Z,3.72
2022-12-23T03:53:54.688Z,3.70
2022-12-23T03:56:43.046Z,3.15
2022-12-23T03:59:21.424Z,3.75
2022-12-23T04:02:15.377Z,4.55
2022-12-23T04:05:03.566Z,5.13
2022-12-23T04:07:50.405Z,4.80
2022-12-23T04:10:17.207Z,5.05
2022-12-23T04:12:44.350Z,4.60
2022-12-23T04:15:13.327Z,3.65
2022-12-23T04:17:40.337Z,3.88
2022-12-23T04:20:07.632Z,4.18
2022-12-23T04:22:34.157Z,4.18
2022-12-23T04:27:27.461Z,3.40
2022-12-23T04:29:53.989Z,3.55
2022-12-23T04:34:46.972Z,3.10
2022-12-23T04:39:39.937Z,2.65
2022-12-23T04:44:32.959Z,3.70
2022-12-23T04:49:26.104Z,3.60
2022-12-23T04:54:19.119Z,3.42
2022-12-23T04:56:45.612Z,3.92
2022-12-23T05:01:38.850Z,3.75
2022-12-23T05:04:05.524Z,3.45
2022-12-23T05:08:58.575Z,2.95
2022-12-23T05:13:51.539Z,2.92
2022-12-23T05:18:44.669Z,2.95
2022-12-23T05:23:37.908Z,2.80
2022-12-23T05:26:04.620Z,2.85
2022-12-23T05:28:31.465Z,3.20
2022-12-23T05:31:03.515Z,3.17
2022-12-23T05:33:30.961Z,3.15
2022-12-23T05:35:57.802Z,3.00
2022-12-23T05:38:24.727Z,3.30
2022-12-23T05:40:51.372Z,3.53
2022-12-23T05:43:18.155Z,3.13
2022-12-23T05:45:45.106Z,3.00
2022-12-23T05:48:11.785Z,3.22
2022-12-23T05:50:39.621Z,3.10
2022-12-23T05:53:06.987Z,3.00
2022-12-23T05:55:34.057Z,3.30
2022-12-23T05:58:00.595Z,3.42
2022-12-23T06:02:54.595Z,2.80
2022-12-23T06:05:22.016Z,4.30
2022-12-23T06:07:48.845Z,3.65
2022-12-23T06:10:15.419Z,3.30
2022-12-23T06:12:41.984Z,3.67
2022-12-23T06:17:35.170Z,4.25
2022-12-23T06:22:29.563Z,4.38
2022-12-23T06:24:59.310Z,4.10
2022-12-23T06:27:25.840Z,5.15
2022-12-23T06:29:53.430Z,4.47
2022-12-23T06:32:19.976Z,5.35
2022-12-23T06:37:13.312Z,4.87
2022-12-23T06:39:39.845Z,5.18
2022-12-23T06:44:32.903Z,4.25
2022-12-23T06:49:26.242Z,4.57
2022-12-23T06:51:52.823Z,4.03
2022-12-23T06:56:45.747Z,4.13
2022-12-23T07:01:38.924Z,3.53
2022-12-23T07:04:05.575Z,3.35
2022-12-23T07:08:58.690Z,4.30
2022-12-23T07:11:25.202Z,3.75
2022-12-23T07:16:18.239Z,3.88
2022-12-23T07:18:45.001Z,4.47
2022-12-23T07:21:21.207Z,3.70
2022-12-23T07:23:53.232Z,3.83
2022-12-23T07:26:19.771Z,4.00
2022-12-23T07:31:15.445Z,3.42
2022-12-23T07:33:42.316Z,3.55
2022-12-23T07:36:09.137Z,4.35
2022-12-23T07:38:35.816Z,4.50
2022-12-23T07:41:02.296Z,4.15
2022-12-23T07:46:00.038Z,3.88
2022-12-23T07:48:27.580Z,6.00
2022-12-23T07:51:00.385Z,6.85
2022-12-23T07:53:27.389Z,5.13
2022-12-23T07:55:56.576Z,4.53
2022-12-23T07:58:24.045Z,4.43
2022-12-23T08:00:50.739Z,5.15
2022-12-23T08:05:44.325Z,5.05
2022-12-23T08:10:41.421Z,7.28
2022-12-23T08:13:11.242Z,7.20
2022-12-23T08:15:37.704Z,7.38
2022-12-23T08:20:30.735Z,5.75
2022-12-23T08:25:23.889Z,4.95
2022-12-23T08:27:51.267Z,5.63
2022-12-23T08:30:18.863Z,6.07
2022-12-23T08:32:45.423Z,5.63
2022-12-23T08:35:12.002Z,5.88
2022-12-23T08:40:05.565Z,5.43
2022-12-23T08:42:32.145Z,5.60
2022-12-23T08:44:58.775Z,6.07
2022-12-23T08:47:25.295Z,6.35
2022-12-23T08:52:18.255Z,11.55
2022-12-23T08:57:11.292Z,10.15
2022-12-23T08:59:37.802Z,9.80
2022-12-23T09:04:31.032Z,7.77
2022-12-23T09:09:23.973Z,7.07
2022-12-23T09:14:17.238Z,8.57
2022-12-23T09:16:45.276Z,31.02
2022-12-23T09:19:12.781Z,26.05
2022-12-23T09:24:06.211Z,12.02
2022-12-23T09:26:33.065Z,14.40
2022-12-23T09:29:00.483Z,10.60
2022-12-23T09:31:34.107Z,8.93
2022-12-23T09:34:03.317Z,8.15
2022-12-23T09:36:30.114Z,9.00
2022-12-23T09:38:58.042Z,8.88
2022-12-23T09:41:53.844Z,8.30
2022-12-23T09:44:49.151Z,9.00
2022-12-23T09:47:21.870Z,8.88
2022-12-23T09:50:18.138Z,7.85
2022-12-23T09:52:59.109Z,9.23
2022-12-23T09:55:34.249Z,8.60
2022-12-23T09:58:06.532Z,10.68
2022-12-23T10:00:44.390Z,9.18
2022-12-23T10:03:40.938Z,8.55
2022-12-23T10:06:15.536Z,9.02
2022-12-23T10:08:46.679Z,8.57
2022-12-23T10:11:17.441Z,7.68
2022-12-23T10:13:51.413Z,8.93
2022-12-23T10:16:29.519Z,7.53
2022-12-23T10:19:23.751Z,8.45
2022-12-23T10:21:52.405Z,7.88
2022-12-23T10:24:21.666Z,10.18
2022-12-23T10:27:05.990Z,9.75
2022-12-23T10:29:34.028Z,10.45
2022-12-23T10:32:06.663Z,11.63
2022-12-23T10:34:51.883Z,11.68
2022-12-23T10:37:46.631Z,6.18
2022-12-23T10:40:22.163Z,5.13
2022-12-23T10:43:01.290Z,7.28
2022-12-23T10:45:43.224Z,9.60
2022-12-23T10:48:40.631Z,11.27
2022-12-23T10:51:34.584Z,10.07
2022-12-23T10:54:15.597Z,9.88
2022-12-23T10:56:43.656Z,8.63
2022-12-23T10:59:15.570Z,9.20
2022-12-23T11:01:47.623Z,8.55
2022-12-23T11:04:25.851Z,11.75
2022-12-23T11:07:18.271Z,9.20
2022-12-23T11:10:32.835Z,7.30
2022-12-23T11:13:00.643Z,6.88
2022-12-23T11:32:51.513Z,6.30
2022-12-23T11:35:27.547Z,6.05
2022-12-23T11:37:54.850Z,5.60
2022-12-23T11:40:26.550Z,6.47
2022-12-23T11:43:03.113Z,6.38
2022-12-23T11:45:34.297Z,5.78
2022-12-23T11:48:00.895Z,4.68
2022-12-23T11:53:04.684Z,4.68
2022-12-23T11:55:32.912Z,4.68
2022-12-23T11:58:02.416Z,5.07
2022-12-23T12:00:42.783Z,6.20
2022-12-23T12:03:18.879Z,6.60
2022-12-23T12:06:13.985Z,7.27
2022-12-23T12:08:41.565Z,7.05
2022-12-23T12:11:15.570Z,6.65
2022-12-23T12:13:45.028Z,6.82
2022-12-23T12:16:35.434Z,5.45
2022-12-23T12:19:11.406Z,6.72
2022-12-23T12:21:38.909Z,6.30
2022-12-23T12:24:27.514Z,7.68
2022-12-23T12:27:01.106Z,7.72
2022-12-23T12:29:54.614Z,8.32
2022-12-23T12:32:53.333Z,6.40
2022-12-23T12:35:31.778Z,6.70
2022-12-23T12:38:10.671Z,5.45
2022-12-23T12:40:49.554Z,4.75
2022-12-23T12:43:31.962Z,4.30
2022-12-23T12:46:08.597Z,4.85
2022-12-23T12:48:44.996Z,3.90
2022-12-23T12:51:28.246Z,3.92
2022-12-23T12:54:04.445Z,5.20
2022-12-23T12:56:49.392Z,4.85
2022-12-23T12:59:18.791Z,4.50
2022-12-23T13:01:59.259Z,4.28
2022-12-23T13:04:42.175Z,5.53
2022-12-23T13:07:26.430Z,8.65
2022-12-23T13:10:10.973Z,9.30
2022-12-23T13:12:59.177Z,9.18
2022-12-23T13:15:39.102Z,8.10
2022-12-23T13:18:35.350Z,9.00
2022-12-23T13:21:07.552Z,10.25
2022-12-23T13:23:59.261Z,11.10
2022-12-23T13:26:37.959Z,9.25
2022-12-23T13:29:42.233Z,6.10
2022-12-23T13:32:41.565Z,4.88
2022-12-23T13:35:27.096Z,4.82
2022-12-23T13:38:06.348Z,4.90
2022-12-23T13:40:54.966Z,6.30
2022-12-23T13:43:26.099Z,5.78
2022-12-23T13:45:54.414Z,6.40
2022-12-23T13:48:45.289Z,6.18
2022-12-23T13:51:25.900Z,5.80
2022-12-23T13:54:15.562Z,5.82
2022-12-23T13:57:14.673Z,6.90
2022-12-23T13:59:43.564Z,5.75
2022-12-23T14:02:38.056Z,4.82
2022-12-23T14:05:23.742Z,5.72
2022-12-23T14:07:50.575Z,5.07
2022-12-23T14:10:22.754Z,4.45
2022-12-23T14:12:51.847Z,4.45
2022-12-23T14:15:44.236Z,4.20
2022-12-23T14:18:25.387Z,4.07
2022-12-23T14:21:15.567Z,4.55
2022-12-23T14:24:11.580Z,5.45
2022-12-23T14:26:57.764Z,5.93
2022-12-23T14:29:52.158Z,4.75
2022-12-23T14:32:23.892Z,6.05
2022-12-23T14:35:18.494Z,5.65
2022-12-23T14:38:14.223Z,5.50
2022-12-23T14:40:43.722Z,5.72
2022-12-23T14:43:22.965Z,5.55
2022-12-23T14:45:50.770Z,4.85
2022-12-23T14:48:41.588Z,5.30
2022-12-23T14:51:08.078Z,4.25
2022-12-23T14:58:49.410Z,3.28
2022-12-23T15:01:19.300Z,3.40
2022-12-23T15:03:56.054Z,3.10
2022-12-23T15:06:33.585Z,2.72
2022-12-23T15:09:02.648Z,4.28
2022-12-23T15:11:31.571Z,3.67
2022-12-23T15:14:02.573Z,3.95
2022-12-23T15:16:39.663Z,3.78
2022-12-23T15:19:19.415Z,3.42
2022-12-23T15:21:50.373Z,4.43
2022-12-23T15:24:22.658Z,7.25
2022-12-23T15:27:17.505Z,6.95
2022-12-23T15:29:50.455Z,4.53
2022-12-23T15:32:18.370Z,3.55
2022-12-23T15:34:48.069Z,3.45
2022-12-23T15:37:22.335Z,3.60
2022-12-23T15:39:54.140Z,3.33
2022-12-23T15:42:34.081Z,3.38
2022-12-23T15:45:00.987Z,4.10
2022-12-23T15:47:36.670Z,3.40
2022-12-23T15:50:04.516Z,3.47
2022-12-23T15:52:32.746Z,2.95
2022-12-23T15:55:12.555Z,3.13
2022-12-23T15:57:50.342Z,2.95
2022-12-23T16:00:23.564Z,3.42
2022-12-23T16:03:01.507Z,4.13
2022-12-23T16:05:38.035Z,3.70
2022-12-23T16:08:12.119Z,3.65
2022-12-23T16:10:39.417Z,3.15
2022-12-23T16:13:17.560Z,3.30
2022-12-23T16:15:44.705Z,2.67
2022-12-23T16:18:20.215Z,3.00
2022-12-23T16:21:04.061Z,2.63
2022-12-23T16:23:37.192Z,2.75
2022-12-23T16:26:03.889Z,3.03
2022-12-23T16:28:40.969Z,2.95
2022-12-23T16:31:10.562Z,3.28
2022-12-23T16:33:55.946Z,4.32
2022-12-23T16:36:34.739Z,3.33
2022-12-23T16:39:07.253Z,2.80
2022-12-23T16:41:35.038Z,2.95
2022-12-23T16:44:01.864Z,2.42
2022-12-23T16:46:34.071Z,3.17
2022-12-23T16:49:04.757Z,3.00
2022-12-23T16:51:34.155Z,3.10
2022-12-23T16:54:02.566Z,3.25
2022-12-23T16:56:37.410Z,2.97
2022-12-23T16:59:04.655Z,3.00
2022-12-23T17:01:35.169Z,3.05
2022-12-23T17:04:02.341Z,3.95
2022-12-23T17:06:28.877Z,2.95
2022-12-23T17:11:36.761Z,4.47
2022-12-23T17:14:09.081Z,4.25
2022-12-23T17:16:38.564Z,3.08
2022-12-23T17:19:05.731Z,3.63
2022-12-23T17:21:37.301Z,3.92
2022-12-23T17:24:20.654Z,3.30
2022-12-23T17:26:47.406Z,3.10
2022-12-23T17:29:14.841Z,3.50
2022-12-23T17:31:43.088Z,3.05
2022-12-23T17:34:15.678Z,2.75
2022-12-23T17:36:49.175Z,3.22
2022-12-23T17:39:16.795Z,3.10
2022-12-23T17:44:13.931Z,2.90
2022-12-23T17:46:40.835Z,4.45
2022-12-23T17:49:09.830Z,3.60
2022-12-23T17:51:39.663Z,3.60
2022-12-23T17:54:06.641Z,3.42
2022-12-23T17:56:33.417Z,3.88
2022-12-23T17:58:59.963Z,3.95
2022-12-23T18:01:29.815Z,3.88
2022-12-23T18:03:58.211Z,3.60
2022-12-23T18:06:26.663Z,3.17
2022-12-23T18:08:53.241Z,2.88
2022-12-23T18:14:05.044Z,3.22
2022-12-23T18:18:58.188Z,4.38
2022-12-23T18:23:54.992Z,3.72
2022-12-23T18:26:21.495Z,6.50
2022-12-23T18:31:19.838Z,3.17
2022-12-23T18:33:47.280Z,3.33
2022-12-23T18:36:27.045Z,3.60
2022-12-23T18:38:53.852Z,5.90
2022-12-23T18:41:21.617Z,2.83
2022-12-23T18:43:48.133Z,4.60
2022-12-23T18:48:41.115Z,4.25
2022-12-23T18:53:34.002Z,3.10
2022-12-23T18:56:02.012Z,3.25
2022-12-23T18:58:28.485Z,3.55
2022-12-23T19:03:31.561Z,3.47
2022-12-23T19:06:06.315Z,4.10
2022-12-23T19:08:35.233Z,7.35
2022-12-23T19:11:02.570Z,4.15
2022-12-23T19:13:29.475Z,5.45
2022-12-23T19:15:56.157Z,4.60
2022-12-23T19:20:49.702Z,3.90
2022-12-23T19:23:17.186Z,3.03
2022-12-23T19:25:52.759Z,9.88
2022-12-23T19:28:21.776Z,3.00
2022-12-23T19:30:48.619Z,1.92
2022-12-23T19:33:15.142Z,2.17
2022-12-23T19:35:42.255Z,2.60
2022-12-23T19:38:08.706Z,2.25
2022-12-23T19:40:35.295Z,2.55
2022-12-23T19:45:28.785Z,1.95
2022-12-23T19:50:22.222Z,2.00
2022-12-23T19:52:50.106Z,2.05
2022-12-23T19:55:16.656Z,2.22
2022-12-23T20:00:10.182Z,2.30
2022-12-23T20:02:39.411Z,1.98
2022-12-23T20:05:06.263Z,1.98
2022-12-23T20:07:35.204Z,3.13
2022-12-23T20:10:03.269Z,1.73
2022-12-23T20:12:29.845Z,3.25
2022-12-23T20:17:22.732Z,1.92
2022-12-23T20:22:15.613Z,2.53
2022-12-23T20:27:11.722Z,1.83
2022-12-23T20:29:39.140Z,2.75
2022-12-23T20:34:38.742Z,2.50
2022-12-23T20:37:06.459Z,2.85
2022-12-23T20:39:33.205Z,1.67
2022-12-23T20:41:59.698Z,2.30
2022-12-23T20:47:07.649Z,1.92
2022-12-23T20:49:34.984Z,2.47
2022-12-23T20:54:33.092Z,2.15
2022-12-23T20:57:01.847Z,10.25
2022-12-23T20:59:28.718Z,7.45
2022-12-23T21:01:55.380Z,2.97
2022-12-23T21:04:22.644Z,5.20
2022-12-23T21:06:49.392Z,3.30
2022-12-23T21:11:45.217Z,2.20
2022-12-23T21:14:12.644Z,2.13
2022-12-23T21:16:40.392Z,2.00
2022-12-23T21:19:09.153Z,2.47
2022-12-23T21:21:35.868Z,2.38
2022-12-23T21:24:04.493Z,2.25
2022-12-23T21:26:32.675Z,1.58
2022-12-23T21:29:00.472Z,2.33
2022-12-23T21:31:28.870Z,1.60
2022-12-23T21:33:56.257Z,2.08
2022-12-23T21:36:25.918Z,3.75
2022-12-23T21:38:52.785Z,3.63
2022-12-23T21:41:22.467Z,4.07
2022-12-23T21:43:49.707Z,3.90
2022-12-23T21:46:18.989Z,3.00
2022-12-23T21:48:46.164Z,3.50
2022-12-23T21:51:20.990Z,3.28
2022-12-23T21:53:50.445Z,2.63
2022-12-23T21:56:19.662Z,3.45
2022-12-23T21:58:46.996Z,2.45
2022-12-23T22:01:16.955Z,1.85
2022-12-23T22:03:44.926Z,3.83
2022-12-23T22:06:25.295Z,3.03
2022-12-23T22:08:53.243Z,1.90
2022-12-23T22:11:27.827Z,2.00
2022-12-23T22:13:56.589Z,2.15
2022-12-23T22:16:26.234Z,2.50
2022-12-23T22:18:53.371Z,2.33
2022-12-23T22:21:22.025Z,2.50
2022-12-23T22:23:50.401Z,2.30
2022-12-23T22:26:24.567Z,2.05
2022-12-23T22:28:52.503Z,1.90
2022-12-23T22:31:31.191Z,2.33
2022-12-23T22:33:57.920Z,2.75
2022-12-23T22:36:24.714Z,2.10
2022-12-23T22:38:56.331Z,3.00
2022-12-23T22:41:24.394Z,2.13
2022-12-23T22:43:51.370Z,2.65
2022-12-23T22:46:18.436Z,2.50
2022-12-23T22:48:45.287Z,2.63
2022-12-23T22:53:40.898Z,2.30
2022-12-23T22:56:08.079Z,3.03
2022-12-23T22:58:34.871Z,3.33
2022-12-23T23:17:51.558Z,2.83
2022-12-23T23:20:18.160Z,2.55
2022-12-23T23:22:44.740Z,4.00
2022-12-23T23:27:37.789Z,3.22
2022-12-23T23:32:31.275Z,2.92
2022-12-23T23:34:57.848Z,2.13
2022-12-23T23:39:51.517Z,5.32
2022-12-23T23:42:18.245Z,6.60
2022-12-23T23:44:44.791Z,4.68
2022-12-23T23:49:37.696Z,3.58
2022-12-23T23:54:30.751Z,3.20
2022-12-23T23:59:23.727Z,2.97
